| time (UTC) | temp C | wind direction | speed KPH | gust KPH | rain 1hr cm | rain 24hr cm | rain mn cm | humidity % | barometer mb |
| 20260906023538 | 15 | 315 | 6.4 | 6.4 | 0.00 | 0.00 | 0.00 | 64 | 1013.8 |
| 20260906023037 | 15 | 338 | 11.3 | 11.3 | 0.00 | 0.00 | 0.00 | 63 | 1013.7 |
| 20260906022537 | 15 | 338 | 11.3 | 11.3 | 0.00 | 0.00 | 0.00 | 63 | 1013.7 |
| 20260906022036 | 15 | 338 | 9.7 | 9.7 | 0.00 | 0.00 | 0.00 | 62 | 1013.5 |
| 20260906021536 | 15 | 338 | 9.7 | 9.7 | 0.00 | 0.00 | 0.00 | 62 | 1013.5 |
| 20260906021046 | 15 | 338 | 6.4 | 6.4 | 0.00 | 0.00 | 0.00 | 62 | 1013.5 |
| 20260906020536 | 15 | 338 | 6.4 | 6.4 | 0.00 | 0.00 | 0.00 | 62 | 1013.5 |
| 20260906020038 | 15 | 338 | 9.7 | 9.7 | 0.00 | 0.00 | 0.00 | 61 | 1013.7 |
| 20260906015537 | 15 | 338 | 9.7 | 9.7 | 0.00 | 0.00 | 0.00 | 61 | 1013.7 |
| 20260906015038 | 15 | 338 | 6.4 | 6.4 | 0.00 | 0.00 | 0.00 | 61 | 1013.8 |
| 20260906014535 | 15 | 338 | 6.4 | 6.4 | 0.00 | 0.00 | 0.00 | 61 | 1013.8 |
| 20260906014039 | 15 | 338 | 6.4 | 6.4 | 0.00 | 0.00 | 0.00 | 60 | 1013.8 |
| 20260906013538 | 15 | 338 | 6.4 | 6.4 | 0.00 | 0.00 | 0.00 | 60 | 1013.8 |
| 20260906013038 | 15 | 0 | 6.4 | 6.4 | 0.00 | 0.00 | 0.00 | 59 | 1013.5 |
| 20260906012538 | 15 | 0 | 6.4 | 6.4 | 0.00 | 0.00 | 0.00 | 59 | 1013.5 |
| 20260906012043 | 15 | 0 | 4.8 | 4.8 | 0.00 | 0.00 | 0.00 | 59 | 1013.6 |
| 20260906011538 | 15 | 0 | 4.8 | 4.8 | 0.00 | 0.00 | 0.00 | 59 | 1013.6 |
| 20260906011037 | 15 | 0 | 9.7 | 9.7 | 0.00 | 0.00 | 0.00 | 58 | 1013.6 |
| 20260906010537 | 15 | 0 | 9.7 | 9.7 | 0.00 | 0.00 | 0.00 | 58 | 1013.6 |
| 20260906010044 | 15 | 338 | 9.7 | 9.7 | 0.00 | 0.00 | 0.00 | 60 | 1013.7 |
| 20260906005537 | 15 | 338 | 9.7 | 9.7 | 0.00 | 0.00 | 0.00 | 60 | 1013.7 |
| 20260906005037 | 15 | 338 | 12.9 | 12.9 | 0.00 | 0.00 | 0.00 | 60 | 1013.6 |
| 20260906004538 | 15 | 338 | 12.9 | 12.9 | 0.00 | 0.00 | 0.00 | 60 | 1013.6 |
| 20260906004036 | 15 | 338 | 6.4 | 6.4 | 0.00 | 0.00 | 0.00 | 60 | 1013.6 |
| 20260906003537 | 15 | 338 | 6.4 | 6.4 | 0.00 | 0.00 | 0.00 | 60 | 1013.6 |
| 20260906003046 | 16 | 338 | 8.0 | 8.0 | 0.00 | 0.00 | 0.00 | 59 | 1013.7 |
| 20260906002537 | 16 | 338 | 8.0 | 8.0 | 0.00 | 0.00 | 0.00 | 59 | 1013.7 |
| 20260906002043 | 16 | 338 | 8.0 | 8.0 | 0.00 | 0.00 | 0.00 | 59 | 1013.7 |
| 20260906001537 | 16 | 338 | 8.0 | 8.0 | 0.00 | 0.00 | 0.00 | 59 | 1013.7 |
| 20260906001038 | 16 | 338 | 8.0 | 8.0 | 0.00 | 0.00 | 0.00 | 59 | 1013.7 |
| 20260906000539 | 16 | 338 | 8.0 | 8.0 | 0.00 | 0.00 | 0.00 | 59 | 1013.7 |
| 20260906000049 | 16 | 338 | 8.0 | 8.0 | 0.00 | 0.00 | 0.00 | 58 | 1013.7 |
| 20260905235536 | 16 | 338 | 8.0 | 8.0 | 0.00 | 0.00 | 0.00 | 58 | 1013.7 |
| 20260905235035 | 16 | 338 | 8.0 | 8.0 | 0.00 | 0.00 | 0.00 | 59 | 1013.4 |
| 20260905234539 | 16 | 338 | 8.0 | 8.0 | 0.00 | 0.00 | 0.00 | 59 | 1013.4 |
| 20260905234049 | 16 | 338 | 8.0 | 8.0 | 0.00 | 0.00 | 0.00 | 58 | 1013.4 |
| 20260905233537 | 16 | 338 | 8.0 | 8.0 | 0.00 | 0.00 | 0.00 | 58 | 1013.4 |
| 20260905233038 | 16 | 338 | 8.0 | 8.0 | 0.00 | 0.00 | 0.00 | 58 | 1013.2 |
| 20260905232537 | 16 | 338 | 8.0 | 8.0 | 0.00 | 0.00 | 0.00 | 58 | 1013.2 |
| 20260905232038 | 16 | 0 | 8.0 | 8.0 | 0.00 | 0.00 | 0.00 | 57 | 1013.2 |
| 20260905231538 | 16 | 0 | 8.0 | 8.0 | 0.00 | 0.00 | 0.00 | 57 | 1013.2 |
| 20260905231037 | 16 | 338 | 8.0 | 8.0 | 0.00 | 0.00 | 0.00 | 56 | 1013.2 |
| 20260905230537 | 16 | 338 | 8.0 | 8.0 | 0.00 | 0.00 | 0.00 | 56 | 1013.2 |
| 20260905230038 | 16 | 338 | 8.0 | 8.0 | 0.00 | 0.00 | 0.00 | 57 | 1013.2 |
| 20260905225538 | 16 | 338 | 8.0 | 8.0 | 0.00 | 0.00 | 0.00 | 57 | 1013.2 |
| 20260905225038 | 16 | 338 | 11.3 | 11.3 | 0.00 | 0.00 | 0.00 | 57 | 1013.2 |
| 20260905224556 | 16 | 338 | 11.3 | 11.3 | 0.00 | 0.00 | 0.00 | 57 | 1013.2 |
| 20260905224037 | 16 | 338 | 6.4 | 6.4 | 0.00 | 0.00 | 0.00 | 56 | 1013.2 |
| 20260905223536 | 16 | 338 | 6.4 | 6.4 | 0.00 | 0.00 | 0.00 | 56 | 1013.2 |
| 20260905223038 | 16 | 338 | 8.0 | 8.0 | 0.00 | 0.00 | 0.00 | 56 | 1013.4 |
| 20260905222538 | 16 | 338 | 8.0 | 8.0 | 0.00 | 0.00 | 0.00 | 56 | 1013.4 |
| 20260905222045 | 16 | 338 | 6.4 | 6.4 | 0.00 | 0.00 | 0.00 | 57 | 1013.2 |
| 20260905221536 | 16 | 338 | 6.4 | 6.4 | 0.00 | 0.00 | 0.00 | 57 | 1013.2 |
| 20260905221057 | 16 | 338 | 8.0 | 8.0 | 0.00 | 0.00 | 0.00 | 58 | 1013.2 |
| 20260905220555 | 16 | 338 | 8.0 | 8.0 | 0.00 | 0.00 | 0.00 | 58 | 1013.2 |
| 20260905220038 | 16 | 338 | 8.0 | 8.0 | 0.00 | 0.00 | 0.00 | 58 | 1013.1 |
| 20260905215537 | 16 | 338 | 8.0 | 8.0 | 0.00 | 0.00 | 0.00 | 58 | 1013.1 |
| 20260905215038 | 16 | 338 | 9.7 | 9.7 | 0.00 | 0.00 | 0.00 | 59 | 1013.1 |
| 20260905214537 | 16 | 338 | 9.7 | 9.7 | 0.00 | 0.00 | 0.00 | 59 | 1013.1 |
| 20260905214037 | 16 | 338 | 6.4 | 6.4 | 0.00 | 0.00 | 0.00 | 59 | 1013.1 |
| 20260905213038 | 16 | 338 | 8.0 | 8.0 | 0.00 | 0.00 | 0.00 | 59 | 1013.2 |
| 20260905212539 | 16 | 338 | 8.0 | 8.0 | 0.00 | 0.00 | 0.00 | 59 | 1013.2 |
| 20260905212046 | 17 | 338 | 9.7 | 9.7 | 0.00 | 0.00 | 0.00 | 60 | 1012.9 |
| 20260905211536 | 17 | 338 | 9.7 | 9.7 | 0.00 | 0.00 | 0.00 | 60 | 1012.9 |
| 20260905211036 | 17 | 338 | 6.4 | 6.4 | 0.00 | 0.00 | 0.00 | 60 | 1012.9 |
| 20260905210538 | 17 | 338 | 6.4 | 6.4 | 0.00 | 0.00 | 0.00 | 60 | 1012.9 |
| 20260905210038 | 17 | 338 | 6.4 | 6.4 | 0.00 | 0.00 | 0.00 | 61 | 1013.1 |
| 20260905205538 | 17 | 338 | 6.4 | 6.4 | 0.00 | 0.00 | 0.00 | 61 | 1013.1 |
| 20260905205036 | 17 | 338 | 11.3 | 11.3 | 0.00 | 0.00 | 0.00 | 61 | 1012.9 |
| 20260905204555 | 17 | 338 | 11.3 | 11.3 | 0.00 | 0.00 | 0.00 | 61 | 1012.9 |
| 20260905204037 | 17 | 315 | 9.7 | 9.7 | 0.00 | 0.00 | 0.00 | 61 | 1012.9 |
| 20260905203537 | 17 | 315 | 9.7 | 9.7 | 0.00 | 0.00 | 0.00 | 61 | 1012.9 |
| 20260905203045 | 17 | 338 | 11.3 | 11.3 | 0.00 | 0.00 | 0.00 | 61 | 1013.1 |
| 20260905202536 | 17 | 338 | 11.3 | 11.3 | 0.00 | 0.00 | 0.00 | 61 | 1013.1 |
| 20260905202039 | 17 | 0 | 14.5 | 14.5 | 0.00 | 0.00 | 0.00 | 61 | 1012.9 |
| 20260905201536 | 17 | 0 | 14.5 | 14.5 | 0.00 | 0.00 | 0.00 | 61 | 1012.9 |
| 20260905201101 | 17 | 338 | 11.3 | 11.3 | 0.00 | 0.00 | 0.00 | 60 | 1012.9 |
| 20260905200537 | 17 | 338 | 11.3 | 11.3 | 0.00 | 0.00 | 0.00 | 60 | 1012.9 |
| 20260905200038 | 18 | 338 | 9.7 | 9.7 | 0.00 | 0.00 | 0.00 | 60 | 1012.5 |
| 20260905195538 | 18 | 338 | 9.7 | 9.7 | 0.00 | 0.00 | 0.00 | 60 | 1012.5 |
| 20260905195038 | 18 | 338 | 14.5 | 14.5 | 0.00 | 0.00 | 0.00 | 60 | 1012.1 |
| 20260905194537 | 18 | 338 | 14.5 | 14.5 | 0.00 | 0.00 | 0.00 | 60 | 1012.1 |
| 20260905194036 | 18 | 338 | 11.3 | 11.3 | 0.00 | 0.00 | 0.00 | 58 | 1011.8 |
| 20260905193536 | 18 | 338 | 11.3 | 11.3 | 0.00 | 0.00 | 0.00 | 58 | 1011.8 |
| 20260905193038 | 18 | 338 | 11.3 | 11.3 | 0.00 | 0.00 | 0.00 | 58 | 1011.8 |
| 20260905192556 | 18 | 338 | 11.3 | 11.3 | 0.00 | 0.00 | 0.00 | 58 | 1011.8 |
| 20260905192057 | 19 | 338 | 14.5 | 14.5 | 0.00 | 0.00 | 0.00 | 57 | 1011.8 |
| 20260905191557 | 19 | 338 | 14.5 | 14.5 | 0.00 | 0.00 | 0.00 | 57 | 1011.8 |
| 20260905191038 | 19 | 22 | 11.3 | 11.3 | 0.00 | 0.00 | 0.00 | 57 | 1011.8 |
| 20260905190557 | 19 | 22 | 11.3 | 11.3 | 0.00 | 0.00 | 0.00 | 57 | 1011.8 |
| 20260905190037 | 19 | 45 | 11.3 | 11.3 | 0.00 | 0.00 | 0.00 | 57 | 1011.7 |
| 20260905185537 | 19 | 45 | 11.3 | 11.3 | 0.00 | 0.00 | 0.00 | 57 | 1011.7 |
| 20260905185037 | 20 | 22 | 9.7 | 9.7 | 0.00 | 0.00 | 0.00 | 58 | 1011.8 |
| 20260905184536 | 20 | 22 | 9.7 | 9.7 | 0.00 | 0.00 | 0.00 | 58 | 1011.8 |
| 20260905184036 | 20 | 338 | 11.3 | 11.3 | 0.00 | 0.00 | 0.00 | 58 | 1011.8 |
| 20260905183555 | 20 | 338 | 11.3 | 11.3 | 0.00 | 0.00 | 0.00 | 58 | 1011.8 |
| 20260905183038 | 20 | 45 | 14.5 | 14.5 | 0.00 | 0.00 | 0.00 | 58 | 1011.5 |
| 20260905182538 | 20 | 45 | 14.5 | 14.5 | 0.00 | 0.00 | 0.00 | 58 | 1011.5 |
| 20260905182036 | 20 | 22 | 9.7 | 9.7 | 0.00 | 0.00 | 0.00 | 61 | 1011.3 |
| 20260905181540 | 20 | 22 | 9.7 | 9.7 | 0.00 | 0.00 | 0.00 | 61 | 1011.3 |
| 20260905181059 | 20 | 45 | 6.4 | 6.4 | 0.00 | 0.00 | 0.00 | 62 | 1011.3 |
| 20260905180555 | 20 | 45 | 6.4 | 6.4 | 0.00 | 0.00 | 0.00 | 62 | 1011.3 |
| 20260905180038 | 20 | 22 | 6.4 | 6.4 | 0.00 | 0.00 | 0.00 | 61 | 1011.0 |
| 20260905175535 | 20 | 22 | 6.4 | 6.4 | 0.00 | 0.00 | 0.00 | 61 | 1011.0 |
| 20260905175037 | 21 | 22 | 9.7 | 9.7 | 0.00 | 0.00 | 0.00 | 60 | 1011.3 |
| 20260905174536 | 21 | 22 | 9.7 | 9.7 | 0.00 | 0.00 | 0.00 | 60 | 1011.3 |
| 20260905174036 | 21 | 0 | 6.4 | 6.4 | 0.00 | 0.00 | 0.00 | 61 | 1011.3 |
| 20260905173556 | 21 | 0 | 6.4 | 6.4 | 0.00 | 0.00 | 0.00 | 61 | 1011.3 |
| 20260905173058 | 21 | 292 | 20.9 | 20.9 | 0.00 | 0.00 | 0.00 | 60 | 1011.1 |
| 20260905172554 | 21 | 292 | 20.9 | 20.9 | 0.00 | 0.00 | 0.00 | 60 | 1011.1 |
| 20260905172054 | 22 | 338 | 11.3 | 11.3 | 0.00 | 0.00 | 0.00 | 60 | 1010.5 |
| 20260905171553 | 22 | 338 | 11.3 | 11.3 | 0.00 | 0.00 | 0.00 | 60 | 1010.5 |
| 20260905171036 | 22 | 338 | 11.3 | 11.3 | 0.00 | 0.00 | 0.00 | 60 | 1010.5 |
| 20260905170538 | 22 | 338 | 11.3 | 11.3 | 0.00 | 0.00 | 0.00 | 60 | 1010.5 |
| 20260905170037 | 22 | 0 | 6.4 | 6.4 | 0.00 | 0.00 | 0.00 | 60 | 1010.5 |
| 20260905165537 | 22 | 0 | 6.4 | 6.4 | 0.00 | 0.00 | 0.00 | 60 | 1010.5 |
| 20260905165037 | 23 | 22 | 8.0 | 8.0 | 0.00 | 0.00 | 0.00 | 58 | 1010.2 |
| 20260905164537 | 23 | 22 | 8.0 | 8.0 | 0.00 | 0.00 | 0.00 | 58 | 1010.2 |
| 20260905164036 | 24 | 338 | 14.5 | 14.5 | 0.00 | 0.00 | 0.00 | 55 | 1010.2 |
| 20260905163556 | 24 | 338 | 14.5 | 14.5 | 0.00 | 0.00 | 0.00 | 55 | 1010.2 |
| 20260905163043 | 25 | 338 | 12.9 | 12.9 | 0.00 | 0.00 | 0.00 | 50 | 1010.1 |
| 20260905162538 | 25 | 338 | 12.9 | 12.9 | 0.00 | 0.00 | 0.00 | 50 | 1010.1 |
| 20260905162039 | 25 | 45 | 4.8 | 4.8 | 0.00 | 0.00 | 0.00 | 46 | 1010.0 |
| 20260905161536 | 25 | 45 | 4.8 | 4.8 | 0.00 | 0.00 | 0.00 | 46 | 1010.0 |
| 20260905161038 | 25 | 315 | 12.9 | 12.9 | 0.00 | 0.00 | 0.00 | 45 | 1010.0 |
| 20260905160537 | 25 | 315 | 12.9 | 12.9 | 0.00 | 0.00 | 0.00 | 45 | 1010.0 |
| 20260905160038 | 26 | 338 | 12.9 | 12.9 | 0.00 | 0.00 | 0.00 | 45 | 1010.2 |
| 20260905155557 | 26 | 338 | 12.9 | 12.9 | 0.00 | 0.00 | 0.00 | 45 | 1010.2 |
| 20260905155058 | 26 | 338 | 11.3 | 11.3 | 0.00 | 0.00 | 0.00 | 44 | 1009.8 |
| 20260905154556 | 26 | 338 | 11.3 | 11.3 | 0.00 | 0.00 | 0.00 | 44 | 1009.8 |
| 20260905154037 | 26 | 0 | 6.4 | 6.4 | 0.00 | 0.00 | 0.00 | 43 | 1009.8 |
| 20260905153537 | 26 | 0 | 6.4 | 6.4 | 0.00 | 0.00 | 0.00 | 43 | 1009.8 |
| 20260905153037 | 26 | 22 | 3.2 | 3.2 | 0.00 | 0.00 | 0.00 | 43 | 1009.8 |
| 20260905152552 | 26 | 22 | 3.2 | 3.2 | 0.00 | 0.00 | 0.00 | 43 | 1009.8 |
| 20260905152038 | 26 | 22 | 4.8 | 4.8 | 0.00 | 0.00 | 0.00 | 43 | 1009.8 |
| 20260905151537 | 26 | 22 | 4.8 | 4.8 | 0.00 | 0.00 | 0.00 | 43 | 1009.8 |
| 20260905151053 | 27 | 45 | 4.8 | 4.8 | 0.00 | 0.00 | 0.00 | 43 | 1009.8 |
| 20260905150555 | 27 | 45 | 4.8 | 4.8 | 0.00 | 0.00 | 0.00 | 43 | 1009.8 |
| 20260905150046 | 27 | 22 | 3.2 | 3.2 | 0.00 | 0.00 | 0.00 | 42 | 1009.8 |
| 20260905145535 | 27 | 22 | 3.2 | 3.2 | 0.00 | 0.00 | 0.00 | 42 | 1009.8 |
| 20260905145047 | 27 | 0 | 8.0 | 8.0 | 0.00 | 0.00 | 0.00 | 42 | 1009.7 |
| 20260905144537 | 27 | 0 | 8.0 | 8.0 | 0.00 | 0.00 | 0.00 | 42 | 1009.7 |
| 20260905144038 | 27 | 338 | 6.4 | 6.4 | 0.00 | 0.00 | 0.00 | 41 | 1009.7 |
| 20260905143554 | 27 | 338 | 6.4 | 6.4 | 0.00 | 0.00 | 0.00 | 41 | 1009.7 |
| 20260905143039 | 27 | 0 | 6.4 | 6.4 | 0.00 | 0.00 | 0.00 | 40 | 1009.7 |
| 20260905142538 | 27 | 0 | 6.4 | 6.4 | 0.00 | 0.00 | 0.00 | 40 | 1009.7 |
| 20260905142036 | 27 | 338 | 9.7 | 9.7 | 0.00 | 0.00 | 0.00 | 39 | 1009.8 |
| 20260905141537 | 27 | 338 | 9.7 | 9.7 | 0.00 | 0.00 | 0.00 | 39 | 1009.8 |
| 20260905141037 | 27 | 338 | 6.4 | 6.4 | 0.00 | 0.00 | 0.00 | 38 | 1009.8 |
| 20260905140535 | 27 | 338 | 6.4 | 6.4 | 0.00 | 0.00 | 0.00 | 38 | 1009.8 |
| 20260905135555 | 27 | 338 | 11.3 | 11.3 | 0.00 | 0.00 | 0.00 | 38 | 1009.8 |
| 20260905135037 | 27 | 22 | 6.4 | 6.4 | 0.00 | 0.00 | 0.00 | 38 | 1009.8 |
| 20260905134542 | 27 | 22 | 6.4 | 6.4 | 0.00 | 0.00 | 0.00 | 38 | 1009.8 |
| 20260905134037 | 27 | 0 | 6.4 | 6.4 | 0.00 | 0.00 | 0.00 | 38 | 1009.8 |
| 20260905133538 | 27 | 0 | 6.4 | 6.4 | 0.00 | 0.00 | 0.00 | 38 | 1009.8 |
| 20260905133038 | 27 | 0 | 9.7 | 9.7 | 0.00 | 0.00 | 0.00 | 38 | 1010.1 |
| 20260905132536 | 27 | 0 | 9.7 | 9.7 | 0.00 | 0.00 | 0.00 | 38 | 1010.1 |
| 20260905132044 | 27 | 45 | 0.0 | 0.0 | 0.00 | 0.00 | 0.00 | 37 | 1010.2 |
| 20260905131537 | 27 | 45 | 0.0 | 0.0 | 0.00 | 0.00 | 0.00 | 37 | 1010.2 |
| 20260905131035 | 27 | 45 | 0.0 | 0.0 | 0.00 | 0.00 | 0.00 | 37 | 1010.2 |
| 20260905130552 | 27 | 45 | 0.0 | 0.0 | 0.00 | 0.00 | 0.00 | 37 | 1010.2 |
| 20260905130057 | 28 | 338 | 8.0 | 8.0 | 0.00 | 0.00 | 0.00 | 38 | 1010.2 |
| 20260905125538 | 28 | 338 | 8.0 | 8.0 | 0.00 | 0.00 | 0.00 | 38 | 1010.2 |
| 20260905125036 | 28 | 0 | 0.0 | 0.0 | 0.00 | 0.00 | 0.00 | 36 | 1010.1 |
| 20260905124538 | 28 | 0 | 0.0 | 0.0 | 0.00 | 0.00 | 0.00 | 36 | 1010.1 |
| 20260905124048 | 27 | 338 | 8.0 | 8.0 | 0.00 | 0.00 | 0.00 | 37 | 1010.1 |
| 20260905123538 | 27 | 338 | 8.0 | 8.0 | 0.00 | 0.00 | 0.00 | 37 | 1010.1 |
| 20260905123043 | 27 | 315 | 9.7 | 9.7 | 0.00 | 0.00 | 0.00 | 38 | 1010.5 |
| 20260905122039 | 27 | 0 | 3.2 | 3.2 | 0.00 | 0.00 | 0.00 | 39 | 1010.5 |
| 20260905121537 | 27 | 0 | 3.2 | 3.2 | 0.00 | 0.00 | 0.00 | 39 | 1010.5 |
| 20260905121042 | 28 | 315 | 11.3 | 11.3 | 0.00 | 0.00 | 0.00 | 36 | 1010.5 |
| 20260905120536 | 28 | 315 | 11.3 | 11.3 | 0.00 | 0.00 | 0.00 | 36 | 1010.5 |
| 20260905120057 | 28 | 315 | 6.4 | 6.4 | 0.00 | 0.00 | 0.00 | 39 | 1010.7 |
| 20260905115538 | 28 | 315 | 6.4 | 6.4 | 0.00 | 0.00 | 0.00 | 39 | 1010.7 |
| 20260905115036 | 28 | 315 | 11.3 | 11.3 | 0.00 | 0.00 | 0.00 | 38 | 1010.6 |
| 20260905114537 | 28 | 315 | 11.3 | 11.3 | 0.00 | 0.00 | 0.00 | 38 | 1010.6 |
| 20260905114037 | 28 | 315 | 9.7 | 9.7 | 0.00 | 0.00 | 0.00 | 36 | 1010.6 |
| 20260905113538 | 28 | 315 | 9.7 | 9.7 | 0.00 | 0.00 | 0.00 | 36 | 1010.6 |
| 20260905113038 | 28 | 315 | 11.3 | 11.3 | 0.00 | 0.00 | 0.00 | 38 | 1010.8 |
| 20260905112538 | 28 | 315 | 11.3 | 11.3 | 0.00 | 0.00 | 0.00 | 38 | 1010.8 |
| 20260905112036 | 28 | 315 | 11.3 | 11.3 | 0.00 | 0.00 | 0.00 | 37 | 1010.5 |
| 20260905111536 | 28 | 315 | 11.3 | 11.3 | 0.00 | 0.00 | 0.00 | 37 | 1010.5 |
| 20260905111038 | 28 | 45 | 8.0 | 8.0 | 0.00 | 0.00 | 0.00 | 35 | 1010.5 |
| 20260905110538 | 28 | 45 | 8.0 | 8.0 | 0.00 | 0.00 | 0.00 | 35 | 1010.5 |
| 20260905110053 | 28 | 22 | 6.4 | 6.4 | 0.00 | 0.00 | 0.00 | 35 | 1010.7 |
| 20260905105536 | 28 | 22 | 6.4 | 6.4 | 0.00 | 0.00 | 0.00 | 35 | 1010.7 |
| 20260905105058 | 28 | 0 | 6.4 | 6.4 | 0.00 | 0.00 | 0.00 | 35 | 1010.9 |
| 20260905104536 | 28 | 0 | 6.4 | 6.4 | 0.00 | 0.00 | 0.00 | 35 | 1010.9 |
| 20260905104038 | 28 | 338 | 11.3 | 11.3 | 0.00 | 0.00 | 0.00 | 35 | 1010.9 |
| 20260905103537 | 28 | 338 | 11.3 | 11.3 | 0.00 | 0.00 | 0.00 | 35 | 1010.9 |
| 20260905103038 | 27 | 22 | 6.4 | 6.4 | 0.00 | 0.00 | 0.00 | 35 | 1010.4 |
| 20260905102555 | 27 | 22 | 6.4 | 6.4 | 0.00 | 0.00 | 0.00 | 35 | 1010.4 |
| 20260905102036 | 27 | 338 | 3.2 | 3.2 | 0.00 | 0.00 | 0.00 | 37 | 1010.6 |
| 20260905101556 | 27 | 338 | 3.2 | 3.2 | 0.00 | 0.00 | 0.00 | 37 | 1010.6 |
| 20260905101037 | 27 | 338 | 11.3 | 11.3 | 0.00 | 0.00 | 0.00 | 38 | 1010.6 |
| 20260905100555 | 27 | 338 | 11.3 | 11.3 | 0.00 | 0.00 | 0.00 | 38 | 1010.6 |
| 20260905100043 | 27 | 338 | 11.3 | 11.3 | 0.00 | 0.00 | 0.00 | 38 | 1010.8 |
| 20260905095536 | 27 | 338 | 11.3 | 11.3 | 0.00 | 0.00 | 0.00 | 38 | 1010.8 |
| 20260905095037 | 27 | 22 | 6.4 | 6.4 | 0.00 | 0.00 | 0.00 | 39 | 1010.6 |
| 20260905094537 | 27 | 22 | 6.4 | 6.4 | 0.00 | 0.00 | 0.00 | 39 | 1010.6 |
| 20260905094036 | 27 | 315 | 0.0 | 0.0 | 0.00 | 0.00 | 0.00 | 40 | 1010.6 |
| 20260905093556 | 27 | 315 | 0.0 | 0.0 | 0.00 | 0.00 | 0.00 | 40 | 1010.6 |
| 20260905093039 | 27 | 22 | 1.6 | 1.6 | 0.00 | 0.00 | 0.00 | 40 | 1010.6 |
| 20260905092537 | 27 | 22 | 1.6 | 1.6 | 0.00 | 0.00 | 0.00 | 40 | 1010.6 |
| 20260905092037 | 27 | 315 | 6.4 | 6.4 | 0.00 | 0.00 | 0.00 | 40 | 1010.5 |
| 20260905091538 | 27 | 315 | 6.4 | 6.4 | 0.00 | 0.00 | 0.00 | 40 | 1010.5 |
| 20260905091037 | 27 | 0 | 11.3 | 11.3 | 0.00 | 0.00 | 0.00 | 40 | 1010.5 |
| 20260905090537 | 27 | 0 | 11.3 | 11.3 | 0.00 | 0.00 | 0.00 | 40 | 1010.5 |
| 20260905090043 | 27 | 0 | 11.3 | 11.3 | 0.00 | 0.00 | 0.00 | 39 | 1010.5 |
| 20260905085536 | 27 | 0 | 11.3 | 11.3 | 0.00 | 0.00 | 0.00 | 39 | 1010.5 |
| 20260905085038 | 27 | 338 | 6.4 | 6.4 | 0.00 | 0.00 | 0.00 | 39 | 1010.2 |
| 20260905084557 | 27 | 338 | 6.4 | 6.4 | 0.00 | 0.00 | 0.00 | 39 | 1010.2 |
| 20260905084036 | 27 | 338 | 9.7 | 9.7 | 0.00 | 0.00 | 0.00 | 39 | 1010.2 |
| 20260905083537 | 27 | 338 | 9.7 | 9.7 | 0.00 | 0.00 | 0.00 | 39 | 1010.2 |
| 20260905083047 | 27 | 0 | 6.4 | 6.4 | 0.00 | 0.00 | 0.00 | 38 | 1010.1 |
| 20260905082538 | 27 | 0 | 6.4 | 6.4 | 0.00 | 0.00 | 0.00 | 38 | 1010.1 |
| 20260905082034 | 27 | 338 | 3.2 | 3.2 | 0.00 | 0.00 | 0.00 | 37 | 1009.9 |
| 20260905081536 | 27 | 338 | 3.2 | 3.2 | 0.00 | 0.00 | 0.00 | 37 | 1009.9 |
| 20260905081043 | 27 | 338 | 0.0 | 0.0 | 0.00 | 0.00 | 0.00 | 36 | 1010.2 |
| 20260905080537 | 27 | 338 | 0.0 | 0.0 | 0.00 | 0.00 | 0.00 | 36 | 1010.2 |
| 20260905080037 | 27 | 338 | 0.0 | 0.0 | 0.00 | 0.00 | 0.00 | 36 | 1010.2 |
| 20260905075537 | 27 | 338 | 0.0 | 0.0 | 0.00 | 0.00 | 0.00 | 36 | 1010.2 |
| 20260905075038 | 27 | 22 | 1.6 | 1.6 | 0.00 | 0.00 | 0.00 | 37 | 1010.0 |
| 20260905074537 | 27 | 22 | 1.6 | 1.6 | 0.00 | 0.00 | 0.00 | 37 | 1010.0 |
| 20260905074037 | 27 | 45 | 0.0 | 0.0 | 0.00 | 0.00 | 0.00 | 37 | 1010.0 |
| 20260905073536 | 27 | 45 | 0.0 | 0.0 | 0.00 | 0.00 | 0.00 | 37 | 1010.0 |
| 20260905073036 | 27 | 45 | 0.0 | 0.0 | 0.00 | 0.00 | 0.00 | 37 | 1009.8 |
| 20260905072556 | 27 | 45 | 0.0 | 0.0 | 0.00 | 0.00 | 0.00 | 37 | 1009.8 |
| 20260905072037 | 26 | 225 | 1.6 | 1.6 | 0.00 | 0.00 | 0.00 | 38 | 1009.9 |
| 20260905071537 | 26 | 225 | 1.6 | 1.6 | 0.00 | 0.00 | 0.00 | 38 | 1009.9 |
| 20260905071037 | 27 | 292 | 0.0 | 0.0 | 0.00 | 0.00 | 0.00 | 38 | 1009.9 |
| 20260905070536 | 27 | 292 | 0.0 | 0.0 | 0.00 | 0.00 | 0.00 | 38 | 1009.9 |
| 20260905065554 | 27 | 202 | 0.0 | 0.0 | 0.00 | 0.00 | 0.00 | 37 | 1009.7 |
| 20260905065038 | 27 | 180 | 0.0 | 0.0 | 0.00 | 0.00 | 0.00 | 37 | 1009.7 |
| 20260905064536 | 27 | 180 | 0.0 | 0.0 | 0.00 | 0.00 | 0.00 | 37 | 1009.7 |
| 20260905064042 | 28 | 158 | 4.8 | 4.8 | 0.00 | 0.00 | 0.00 | 37 | 1009.7 |
| 20260905063538 | 28 | 158 | 4.8 | 4.8 | 0.00 | 0.00 | 0.00 | 37 | 1009.7 |
| 20260905063037 | 27 | 158 | 0.0 | 0.0 | 0.00 | 0.00 | 0.00 | 36 | 1010.0 |
| 20260905062537 | 27 | 158 | 0.0 | 0.0 | 0.00 | 0.00 | 0.00 | 36 | 1010.0 |
| 20260905062044 | 27 | 158 | 0.0 | 0.0 | 0.00 | 0.00 | 0.00 | 36 | 1009.9 |
| 20260905061538 | 27 | 158 | 0.0 | 0.0 | 0.00 | 0.00 | 0.00 | 36 | 1009.9 |
| 20260905061048 | 27 | 158 | 0.0 | 0.0 | 0.00 | 0.00 | 0.00 | 36 | 1009.9 |
| 20260905060538 | 27 | 158 | 0.0 | 0.0 | 0.00 | 0.00 | 0.00 | 36 | 1009.9 |
| 20260905060038 | 27 | 158 | 0.0 | 0.0 | 0.00 | 0.00 | 0.00 | 36 | 1009.9 |
| 20260905055536 | 27 | 158 | 0.0 | 0.0 | 0.00 | 0.00 | 0.00 | 36 | 1009.9 |
| 20260905055037 | 26 | 158 | 0.0 | 0.0 | 0.00 | 0.00 | 0.00 | 39 | 1009.8 |
| 20260905054557 | 26 | 158 | 0.0 | 0.0 | 0.00 | 0.00 | 0.00 | 39 | 1009.8 |
| 20260905054036 | 26 | 158 | 0.0 | 0.0 | 0.00 | 0.00 | 0.00 | 40 | 1009.8 |
| 20260905053539 | 26 | 158 | 0.0 | 0.0 | 0.00 | 0.00 | 0.00 | 40 | 1009.8 |
| 20260905053040 | 25 | 158 | 0.0 | 0.0 | 0.00 | 0.00 | 0.00 | 41 | 1009.9 |
| 20260905052538 | 25 | 158 | 0.0 | 0.0 | 0.00 | 0.00 | 0.00 | 41 | 1009.9 |
| 20260905052043 | 25 | 158 | 0.0 | 0.0 | 0.00 | 0.00 | 0.00 | 40 | 1009.7 |
| 20260905051540 | 25 | 158 | 0.0 | 0.0 | 0.00 | 0.00 | 0.00 | 40 | 1009.7 |
| 20260905051038 | 24 | 158 | 0.0 | 0.0 | 0.00 | 0.00 | 0.00 | 42 | 1009.7 |
| 20260905050538 | 24 | 158 | 0.0 | 0.0 | 0.00 | 0.00 | 0.00 | 42 | 1009.7 |
| 20260905050056 | 23 | 158 | 0.0 | 0.0 | 0.00 | 0.00 | 0.00 | 43 | 1009.9 |
| 20260905045536 | 23 | 158 | 0.0 | 0.0 | 0.00 | 0.00 | 0.00 | 43 | 1009.9 |
| 20260905045042 | 22 | 158 | 0.0 | 0.0 | 0.00 | 0.00 | 0.00 | 45 | 1010.0 |
| 20260905044537 | 22 | 158 | 0.0 | 0.0 | 0.00 | 0.00 | 0.00 | 45 | 1010.0 |
| 20260905044036 | 21 | 158 | 0.0 | 0.0 | 0.00 | 0.00 | 0.00 | 47 | 1010.0 |
| 20260905043537 | 21 | 158 | 0.0 | 0.0 | 0.00 | 0.00 | 0.00 | 47 | 1010.0 |
| 20260905043037 | 20 | 158 | 0.0 | 0.0 | 0.00 | 0.00 | 0.00 | 49 | 1009.7 |
| 20260905042536 | 20 | 158 | 0.0 | 0.0 | 0.00 | 0.00 | 0.00 | 49 | 1009.7 |
| 20260905042044 | 20 | 158 | 0.0 | 0.0 | 0.00 | 0.00 | 0.00 | 51 | 1009.8 |
| 20260905041537 | 20 | 158 | 0.0 | 0.0 | 0.00 | 0.00 | 0.00 | 51 | 1009.8 |
| 20260905041035 | 19 | 158 | 0.0 | 0.0 | 0.00 | 0.00 | 0.00 | 52 | 1009.8 |
| 20260905040558 | 19 | 158 | 0.0 | 0.0 | 0.00 | 0.00 | 0.00 | 52 | 1009.8 |
| 20260905040041 | 19 | 158 | 0.0 | 0.0 | 0.00 | 0.00 | 0.00 | 52 | 1009.8 |
| 20260905035537 | 19 | 158 | 0.0 | 0.0 | 0.00 | 0.00 | 0.00 | 52 | 1009.8 |
| 20260905035037 | 19 | 158 | 0.0 | 0.0 | 0.00 | 0.00 | 0.00 | 51 | 1009.8 |
| 20260905034536 | 19 | 158 | 0.0 | 0.0 | 0.00 | 0.00 | 0.00 | 51 | 1009.8 |
| 20260905034037 | 19 | 158 | 0.0 | 0.0 | 0.00 | 0.00 | 0.00 | 51 | 1009.8 |
| 20260905033555 | 19 | 158 | 0.0 | 0.0 | 0.00 | 0.00 | 0.00 | 51 | 1009.8 |
| 20260905033035 | 19 | 158 | 1.6 | 1.6 | 0.00 | 0.00 | 0.00 | 51 | 1009.7 |
| 20260905032535 | 19 | 158 | 1.6 | 1.6 | 0.00 | 0.00 | 0.00 | 51 | 1009.7 |
| 20260905032037 | 19 | 158 | 0.0 | 0.0 | 0.00 | 0.00 | 0.00 | 51 | 1009.8 |
| 20260905031536 | 19 | 158 | 0.0 | 0.0 | 0.00 | 0.00 | 0.00 | 51 | 1009.8 |
| 20260905031037 | 19 | 158 | 0.0 | 0.0 | 0.00 | 0.00 | 0.00 | 52 | 1009.8 |
| 20260905030535 | 19 | 158 | 0.0 | 0.0 | 0.00 | 0.00 | 0.00 | 52 | 1009.8 |
| 20260905030037 | 19 | 158 | 0.0 | 0.0 | 0.00 | 0.00 | 0.00 | 52 | 1009.9 |
| 20260905025537 | 19 | 158 | 0.0 | 0.0 | 0.00 | 0.00 | 0.00 | 52 | 1009.9 |
| 20260905025036 | 19 | 158 | 0.0 | 0.0 | 0.00 | 0.00 | 0.00 | 51 | 1009.8 |
| 20260905024536 | 19 | 158 | 0.0 | 0.0 | 0.00 | 0.00 | 0.00 | 51 | 1009.8 |
| 20260905024035 | 19 | 158 | 0.0 | 0.0 | 0.00 | 0.00 | 0.00 | 51 | 1009.8 |